createdAt,value
2023-05-03T00:00:32.389Z,91.72
2023-05-03T00:01:32.390Z,91.62
2023-05-03T00:02:32.576Z,91.31
2023-05-03T00:03:32.359Z,91.52
2023-05-03T00:04:32.450Z,91.62
2023-05-03T00:05:32.388Z,91.35
2023-05-03T00:06:32.376Z,91.31
2023-05-03T00:07:32.357Z,91.62
2023-05-03T00:08:32.321Z,91.77
2023-05-03T00:09:32.318Z,91.31
2023-05-03T00:10:32.314Z,91.77
2023-05-03T00:11:32.323Z,91.04
2023-05-03T00:12:32.308Z,91.25
2023-05-03T00:13:32.297Z,91.56
2023-05-03T00:14:32.305Z,91.97
2023-05-03T00:15:32.286Z,91.46
2023-05-03T00:16:32.319Z,91.56
2023-05-03T00:17:32.318Z,91.46
2023-05-03T00:18:32.255Z,91.46
2023-05-03T00:19:32.232Z,91.87
2023-05-03T00:20:32.244Z,91.87
2023-05-03T00:22:22.178Z,92.18
2023-05-03T00:23:22.180Z,92.08
2023-05-03T00:24:23.272Z,91.97
2023-05-03T00:25:23.269Z,91.87
2023-05-03T00:26:23.243Z,91.87
2023-05-03T00:27:23.252Z,91.66
2023-05-03T00:28:23.225Z,91.62
2023-05-03T00:29:23.229Z,91.31
2023-05-03T00:30:23.259Z,91.20
2023-05-03T00:31:23.246Z,91.10
2023-05-03T00:32:23.361Z,91.31
2023-05-03T00:33:23.197Z,91.10
2023-05-03T00:34:23.180Z,90.83
2023-05-03T00:35:23.182Z,90.93
2023-05-03T00:36:23.217Z,90.83
2023-05-03T00:37:25.125Z,91.35
2023-05-03T00:38:23.158Z,91.35
2023-05-03T00:39:23.148Z,91.46
2023-05-03T00:40:23.133Z,91.46
2023-05-03T00:41:23.118Z,91.60
2023-05-03T00:42:23.116Z,91.60
2023-05-03T00:43:23.122Z,91.81
2023-05-03T00:44:23.111Z,92.02
2023-05-03T00:45:23.109Z,91.91
2023-05-03T00:46:23.120Z,92.33
2023-05-03T00:47:23.140Z,92.43
2023-05-03T00:48:23.073Z,92.33
2023-05-03T00:49:23.058Z,92.37
2023-05-03T00:50:23.057Z,92.27
2023-05-03T00:51:23.048Z,92.02
2023-05-03T00:52:23.039Z,92.33
2023-05-03T00:53:23.066Z,92.06
2023-05-03T00:54:23.020Z,92.79
2023-05-03T00:55:23.016Z,92.47
2023-05-03T00:56:23.016Z,92.58
2023-05-03T00:57:23.046Z,92.79
2023-05-03T00:58:23.016Z,92.79
2023-05-03T00:59:23.018Z,92.83
2023-05-03T01:00:23.000Z,92.21
2023-05-03T01:01:23.018Z,92.16
2023-05-03T01:02:23.036Z,93.04
2023-05-03T01:03:22.991Z,93.24
2023-05-03T01:04:22.974Z,93.24
2023-05-03T01:05:23.654Z,93.46
2023-05-03T01:06:23.016Z,93.46
2023-05-03T01:07:22.937Z,93.46
2023-05-03T01:08:22.919Z,93.46
2023-05-03T01:09:22.912Z,93.24
2023-05-03T01:10:22.950Z,93.35
2023-05-03T01:11:22.895Z,93.35
2023-05-03T01:12:22.894Z,93.14
2023-05-03T01:13:22.866Z,93.35
2023-05-03T01:14:22.892Z,93.35
2023-05-03T01:15:22.854Z,93.14
2023-05-03T01:16:22.900Z,93.66
2023-05-03T01:17:22.837Z,93.24
2023-05-03T01:18:22.827Z,93.04
2023-05-03T01:19:22.824Z,93.50
2023-05-03T01:20:22.808Z,92.97
2023-05-03T01:21:22.840Z,93.40
2023-05-03T01:22:23.562Z,92.97
2023-05-03T01:23:22.786Z,93.18
2023-05-03T01:24:22.787Z,92.77
2023-05-03T01:25:22.784Z,93.29
2023-05-03T01:26:22.781Z,93.50
2023-05-03T01:27:22.774Z,93.60
2023-05-03T01:28:22.765Z,93.29
2023-05-03T01:29:23.573Z,93.18
2023-05-03T01:30:22.744Z,93.29
2023-05-03T01:31:22.804Z,93.81
2023-05-03T01:32:22.762Z,93.81
2023-05-03T01:33:22.723Z,93.71
2023-05-03T01:34:22.712Z,93.81
2023-05-03T01:35:22.710Z,93.81
2023-05-03T01:36:22.696Z,94.12
2023-05-03T01:37:22.707Z,93.81
2023-05-03T01:38:22.684Z,93.91
2023-05-03T01:39:22.669Z,93.91
2023-05-03T01:40:22.680Z,93.81
2023-05-03T01:41:22.655Z,93.91
2023-05-03T01:42:23.626Z,93.40
2023-05-03T01:43:22.661Z,93.40
2023-05-03T01:44:22.635Z,93.29
2023-05-03T01:45:22.681Z,93.71
2023-05-03T01:46:24.169Z,93.54
2023-05-03T01:47:22.600Z,93.60
2023-05-03T01:48:22.594Z,93.29
2023-05-03T01:49:22.597Z,93.60
2023-05-03T01:50:22.576Z,93.91
2023-05-03T01:51:22.594Z,93.75
2023-05-03T01:52:22.580Z,93.85
2023-05-03T01:53:22.567Z,93.71
2023-05-03T01:54:22.543Z,93.60
2023-05-03T01:55:22.553Z,93.71
2023-05-03T01:56:22.553Z,94.12
2023-05-03T01:57:22.546Z,93.96
2023-05-03T01:58:22.525Z,94.27
2023-05-03T01:59:22.550Z,94.33
2023-05-03T02:00:22.493Z,93.96
2023-05-03T02:01:23.535Z,94.06
2023-05-03T02:02:22.496Z,94.17
2023-05-03T02:03:22.518Z,93.91
2023-05-03T02:04:22.527Z,94.02
2023-05-03T02:05:22.465Z,93.96
2023-05-03T02:06:22.539Z,93.65
2023-05-03T02:07:22.460Z,93.71
2023-05-03T02:08:22.447Z,93.75
2023-05-03T02:09:22.466Z,94.06
2023-05-03T02:10:22.440Z,93.65
2023-05-03T02:11:22.430Z,94.17
2023-05-03T02:12:22.414Z,94.17
2023-05-03T02:13:22.411Z,94.06
2023-05-03T02:14:22.403Z,94.27
2023-05-03T02:15:22.386Z,94.27
2023-05-03T02:16:22.434Z,94.17
2023-05-03T02:17:22.414Z,93.85
2023-05-03T02:18:22.388Z,93.75
2023-05-03T02:19:22.425Z,93.54
2023-05-03T02:20:22.369Z,93.65
2023-05-03T02:21:22.351Z,93.85
2023-05-03T02:22:22.351Z,93.69
2023-05-03T02:23:22.355Z,93.90
2023-05-03T02:24:22.327Z,93.69
2023-05-03T02:25:22.321Z,94.21
2023-05-03T02:26:22.315Z,94.10
2023-05-03T02:27:22.314Z,93.69
2023-05-03T02:28:22.306Z,93.59
2023-05-03T02:29:22.294Z,93.90
2023-05-03T02:30:22.284Z,94.10
2023-05-03T02:31:22.328Z,93.90
2023-05-03T02:32:22.261Z,94.10
2023-05-03T02:33:22.264Z,94.00
2023-05-03T02:34:22.255Z,94.21
2023-05-03T02:35:22.237Z,94.52
2023-05-03T02:36:22.236Z,94.10
2023-05-03T02:37:23.221Z,94.42
2023-05-03T02:38:22.238Z,94.52
2023-05-03T02:39:22.238Z,94.42
2023-05-03T02:40:22.205Z,94.15
2023-05-03T02:41:22.230Z,94.31
2023-05-03T02:42:22.195Z,94.21
2023-05-03T02:43:22.187Z,94.35
2023-05-03T02:44:22.190Z,94.57
2023-05-03T02:45:22.166Z,93.84
2023-05-03T02:46:22.205Z,94.67
2023-05-03T02:47:22.174Z,94.57
2023-05-03T02:48:22.143Z,94.57
2023-05-03T02:49:22.138Z,94.57
2023-05-03T02:50:22.130Z,94.78
2023-05-03T02:51:23.119Z,94.98
2023-05-03T02:52:22.112Z,94.73
2023-05-03T02:53:22.104Z,94.67
2023-05-03T02:54:22.124Z,94.46
2023-05-03T02:55:22.101Z,94.46
2023-05-03T02:56:22.100Z,94.67
2023-05-03T02:57:22.097Z,94.46
2023-05-03T02:58:22.079Z,94.57
2023-05-03T02:59:22.078Z,94.46
2023-05-03T03:00:22.070Z,94.67
2023-05-03T03:01:22.072Z,94.67
2023-05-03T03:02:22.064Z,94.78
2023-05-03T03:03:22.102Z,94.57
2023-05-03T03:04:22.009Z,94.50
2023-05-03T03:05:22.050Z,94.25
2023-05-03T03:06:22.032Z,94.46
2023-05-03T03:07:21.999Z,94.57
2023-05-03T03:08:21.987Z,94.71
2023-05-03T03:09:21.975Z,94.71
2023-05-03T03:10:21.979Z,95.34
2023-05-03T03:11:22.959Z,95.23
2023-05-03T03:12:21.957Z,95.44
2023-05-03T03:13:21.941Z,95.13
2023-05-03T03:14:21.943Z,95.13
2023-05-03T03:15:21.937Z,94.71
2023-05-03T03:16:21.963Z,94.92
2023-05-03T03:17:22.009Z,94.86
2023-05-03T03:18:21.899Z,94.76
2023-05-03T03:19:21.918Z,94.76
2023-05-03T03:20:21.891Z,94.55
2023-05-03T03:21:21.887Z,95.07
2023-05-03T03:22:21.887Z,95.28
2023-05-03T03:23:21.896Z,95.28
2023-05-03T03:24:21.868Z,95.59
2023-05-03T03:25:21.850Z,95.17
2023-05-03T03:26:21.872Z,95.38
2023-05-03T03:27:21.837Z,95.17
2023-05-03T03:28:21.830Z,94.76
2023-05-03T03:29:21.824Z,95.49
2023-05-03T03:30:21.836Z,94.86
2023-05-03T03:31:21.854Z,94.44
2023-05-03T03:32:21.792Z,94.23
2023-05-03T03:33:24.259Z,95.90
2023-05-03T03:34:22.777Z,94.55
2023-05-03T03:35:21.795Z,94.65
2023-05-03T03:36:21.788Z,94.96
2023-05-03T03:37:21.767Z,95.43
2023-05-03T03:38:21.750Z,94.96
2023-05-03T03:39:21.749Z,95.07
2023-05-03T03:40:21.736Z,95.38
2023-05-03T03:41:21.730Z,96.59
2023-05-03T03:42:21.726Z,96.01
2023-05-03T03:43:21.706Z,95.49
2023-05-03T03:44:21.701Z,95.90
2023-05-03T03:45:21.726Z,95.28
2023-05-03T03:46:22.738Z,96.33
2023-05-03T03:47:21.822Z,96.38
2023-05-03T03:48:21.666Z,96.28
2023-05-03T03:49:21.680Z,96.28
2023-05-03T03:50:21.683Z,96.11
2023-05-03T03:51:21.652Z,96.17
2023-05-03T03:52:21.642Z,95.97
2023-05-03T03:53:22.626Z,96.07
2023-05-03T03:54:21.629Z,96.17
2023-05-03T03:55:21.612Z,96.28
2023-05-03T03:56:21.609Z,96.28
2023-05-03T03:57:21.603Z,96.28
2023-05-03T03:58:21.625Z,96.07
2023-05-03T03:59:21.587Z,96.38
2023-05-03T04:00:21.605Z,96.28
2023-05-03T04:01:22.083Z,96.28
2023-05-03T04:02:21.597Z,96.03
2023-05-03T04:03:21.632Z,96.17
2023-05-03T04:04:21.626Z,96.34
2023-05-03T04:05:21.547Z,96.03
2023-05-03T04:06:21.552Z,96.13
2023-05-03T04:07:21.528Z,95.61
2023-05-03T04:08:23.156Z,95.50
2023-05-03T04:09:21.530Z,95.82
2023-05-03T04:10:21.522Z,95.29
2023-05-03T04:11:21.519Z,94.35
2023-05-03T04:12:21.489Z,94.82
2023-05-03T04:13:21.472Z,94.88
2023-05-03T04:14:21.468Z,94.92
2023-05-03T04:15:21.493Z,94.78
2023-05-03T04:16:21.610Z,94.78
2023-05-03T04:17:21.482Z,94.78
2023-05-03T04:18:21.442Z,94.67
2023-05-03T04:19:21.430Z,94.57
2023-05-03T04:20:21.433Z,94.42
2023-05-03T04:21:21.433Z,94.73
2023-05-03T04:22:21.416Z,94.73
2023-05-03T04:23:21.404Z,94.52
2023-05-03T04:24:21.402Z,93.75
2023-05-03T04:25:21.391Z,93.54
2023-05-03T04:26:31.333Z,92.81
2023-05-03T04:27:23.377Z,91.97
2023-05-03T04:28:21.362Z,92.18
2023-05-03T04:29:22.086Z,91.35
2023-05-03T04:30:22.078Z,91.93
2023-05-03T04:31:21.387Z,91.56
2023-05-03T04:32:21.325Z,91.14
2023-05-03T04:33:21.487Z,91.10
2023-05-03T04:34:21.315Z,91.20
2023-05-03T04:35:22.079Z,90.16
2023-05-03T04:36:21.504Z,90.58
2023-05-03T04:37:21.309Z,90.58
2023-05-03T04:38:21.293Z,89.85
2023-05-03T04:39:21.296Z,89.75
2023-05-03T04:40:21.278Z,89.56
2023-05-03T04:41:21.290Z,88.48
2023-05-03T04:42:21.260Z,87.40
2023-05-03T04:43:21.268Z,86.94
2023-05-03T04:44:21.289Z,85.82
2023-05-03T04:45:21.233Z,84.12
2023-05-03T04:46:21.282Z,83.04
2023-05-03T04:47:21.221Z,81.87
2023-05-03T04:48:21.200Z,80.99
2023-05-03T04:49:21.210Z,79.71
2023-05-03T04:50:21.197Z,78.37
2023-05-03T04:51:24.319Z,77.85
2023-05-03T04:52:21.179Z,77.61
2023-05-03T04:53:21.180Z,77.95
2023-05-03T04:54:21.175Z,76.19
2023-05-03T04:55:21.150Z,76.46
2023-05-03T04:56:21.189Z,76.12
2023-05-03T04:57:21.176Z,74.84
2023-05-03T04:58:21.123Z,74.08
2023-05-03T04:59:21.128Z,73.50
2023-05-03T05:00:21.125Z,71.06
2023-05-03T05:01:21.140Z,69.72
2023-05-03T05:03:28.356Z,68.73
2023-05-03T05:04:28.241Z,68.59
2023-05-03T05:05:28.214Z,68.76
2023-05-03T05:06:28.251Z,68.42
2023-05-03T05:07:28.211Z,68.08
2023-05-03T05:08:28.200Z,67.81
2023-05-03T05:09:28.180Z,66.13
2023-05-03T05:10:28.175Z,65.48
2023-05-03T05:11:28.172Z,64.43
2023-05-03T05:12:28.156Z,64.09
2023-05-03T05:13:28.174Z,63.68
2023-05-03T05:14:28.172Z,63.37
2023-05-03T05:15:28.132Z,63.17
2023-05-03T05:16:28.145Z,62.18
2023-05-03T05:17:28.183Z,61.23
2023-05-03T05:18:28.150Z,61.04
2023-05-03T05:19:28.136Z,58.63
2023-05-03T05:20:28.110Z,58.37
2023-05-03T05:21:28.081Z,57.09
2023-05-03T05:22:28.118Z,56.48
2023-05-03T05:23:28.096Z,57.09
2023-05-03T05:24:28.109Z,57.12
2023-05-03T05:25:28.082Z,57.22
2023-05-03T05:26:28.048Z,56.71
2023-05-03T05:27:28.057Z,56.74
2023-05-03T05:28:28.034Z,58.53
2023-05-03T05:29:29.140Z,58.84
2023-05-03T05:30:29.132Z,58.66
2023-05-03T05:31:29.109Z,59.55
2023-05-03T05:32:29.082Z,58.12
2023-05-03T05:33:29.192Z,59.38
2023-05-03T05:34:32.260Z,59.07
2023-05-03T05:35:30.064Z,60.02
2023-05-03T05:36:29.046Z,59.86
2023-05-03T05:37:29.050Z,59.55
2023-05-03T05:38:29.046Z,58.73
2023-05-03T05:39:29.043Z,58.76
2023-05-03T05:40:29.140Z,59.09
2023-05-03T05:41:29.009Z,60.12
2023-05-03T05:42:29.026Z,60.53
2023-05-03T05:43:29.003Z,60.25
2023-05-03T05:44:28.994Z,59.99
2023-05-03T05:45:29.608Z,59.84
2023-05-03T05:46:29.005Z,59.74
2023-05-03T05:47:28.998Z,60.82
2023-05-03T05:48:29.610Z,62.05
2023-05-03T05:49:28.973Z,61.41
2023-05-03T05:50:28.938Z,61.48
2023-05-03T05:51:28.946Z,61.38
2023-05-03T05:52:28.920Z,60.76
2023-05-03T05:53:28.911Z,60.97
2023-05-03T05:54:30.575Z,60.97
2023-05-03T05:55:29.609Z,60.97
2023-05-03T05:57:35.668Z,62.56
2023-05-03T05:58:35.659Z,62.02
2023-05-03T05:59:35.683Z,61.18
2023-05-03T06:00:35.646Z,60.22
2023-05-03T06:01:35.644Z,59.89
2023-05-03T06:02:35.806Z,60.37
2023-05-03T06:03:36.721Z,58.61
2023-05-03T06:04:37.749Z,58.58
2023-05-03T06:05:36.733Z,58.11
2023-05-03T06:06:36.753Z,56.68
2023-05-03T06:07:36.686Z,56.43
2023-05-03T06:08:36.674Z,55.46
2023-05-03T06:09:36.667Z,54.28
2023-05-03T06:10:36.660Z,53.83
2023-05-03T06:11:37.535Z,53.22
2023-05-03T06:12:36.642Z,52.10
2023-05-03T06:13:36.655Z,52.63
2023-05-03T06:14:36.648Z,52.50
2023-05-03T06:15:36.656Z,53.57
2023-05-03T06:16:36.645Z,54.72
2023-05-03T06:17:36.709Z,55.48
2023-05-03T06:18:36.613Z,56.10
2023-05-03T06:19:36.601Z,56.88
2023-05-03T06:20:36.619Z,54.69
2023-05-03T06:21:36.586Z,55.63
2023-05-03T06:22:37.585Z,55.26
2023-05-03T06:23:36.564Z,55.87
2023-05-03T06:24:36.641Z,55.84
2023-05-03T06:25:36.571Z,55.41
2023-05-03T06:26:36.543Z,54.13
2023-05-03T06:27:36.685Z,52.86
2023-05-03T06:28:36.570Z,52.45
2023-05-03T06:29:37.549Z,52.43
2023-05-03T06:31:43.537Z,54.92
2023-05-03T06:32:43.369Z,56.15
2023-05-03T06:33:43.342Z,55.20
2023-05-03T06:34:43.372Z,55.81
2023-05-03T06:35:43.333Z,54.87
2023-05-03T06:36:44.222Z,54.39
2023-05-03T06:37:43.381Z,55.51
2023-05-03T06:38:43.297Z,56.30
2023-05-03T06:39:44.418Z,58.09
2023-05-03T06:40:44.403Z,58.60
2023-05-03T06:41:45.288Z,58.26
2023-05-03T06:42:44.394Z,58.50
2023-05-03T06:43:44.344Z,58.83
2023-05-03T06:44:44.330Z,59.57
2023-05-03T06:45:46.341Z,60.05
2023-05-03T06:46:44.396Z,58.37
2023-05-03T06:47:44.376Z,58.41
2023-05-03T06:48:44.421Z,56.76
2023-05-03T06:49:44.316Z,56.93
2023-05-03T06:50:44.298Z,56.22
2023-05-03T06:51:44.289Z,56.22
2023-05-03T06:52:44.293Z,55.48
2023-05-03T06:53:44.265Z,56.15
2023-05-03T06:54:44.258Z,57.32
2023-05-03T06:55:44.245Z,56.71
2023-05-03T06:56:44.255Z,56.88
2023-05-03T06:57:44.227Z,55.94
2023-05-03T06:58:44.221Z,56.65
2023-05-03T06:59:44.229Z,56.65
2023-05-03T07:00:44.218Z,56.76
2023-05-03T07:01:44.282Z,56.85
2023-05-03T07:02:44.287Z,56.27
2023-05-03T07:03:44.351Z,56.78
2023-05-03T07:04:44.187Z,56.45
2023-05-03T07:05:44.181Z,55.84
2023-05-03T07:06:55.380Z,56.48
2023-05-03T07:07:46.147Z,56.55
2023-05-03T07:08:44.167Z,56.22
2023-05-03T07:09:44.770Z,56.04
2023-05-03T07:10:44.818Z,55.94
2023-05-03T07:11:44.325Z,56.81
2023-05-03T07:12:44.193Z,57.75
2023-05-03T07:13:44.133Z,58.39
2023-05-03T07:14:44.097Z,58.06
2023-05-03T07:15:44.193Z,56.73
2023-05-03T07:16:44.226Z,54.69
2023-05-03T07:17:44.324Z,54.39
2023-05-03T07:18:44.720Z,54.31
2023-05-03T07:19:44.070Z,54.90
2023-05-03T07:20:44.051Z,53.96
2023-05-03T07:21:44.061Z,53.65
2023-05-03T07:22:44.038Z,53.78
2023-05-03T07:23:44.022Z,54.49
2023-05-03T07:24:44.069Z,54.21
2023-05-03T07:25:44.048Z,54.49
2023-05-03T07:26:44.725Z,53.80
2023-05-03T07:27:44.997Z,52.10
2023-05-03T07:28:44.053Z,50.65
2023-05-03T07:29:44.061Z,48.83
2023-05-03T07:30:44.827Z,48.95
2023-05-03T07:31:43.978Z,51.03
2023-05-03T07:32:44.065Z,51.94
2023-05-03T07:33:44.034Z,52.35
2023-05-03T07:34:43.953Z,52.37
2023-05-03T07:35:43.943Z,52.45
2023-05-03T07:36:44.934Z,52.29
2023-05-03T07:37:43.937Z,51.79
2023-05-03T07:38:43.909Z,52.40
2023-05-03T07:39:43.905Z,52.37
2023-05-03T07:40:43.899Z,52.35
2023-05-03T07:41:43.986Z,51.33
2023-05-03T07:42:43.922Z,49.68
2023-05-03T07:43:43.869Z,50.87
2023-05-03T07:44:43.883Z,49.30
2023-05-03T07:45:43.915Z,49.51
2023-05-03T07:46:43.836Z,48.39
2023-05-03T07:47:43.871Z,46.36
2023-05-03T07:48:43.819Z,46.66
2023-05-03T07:49:43.841Z,46.76
2023-05-03T07:50:43.810Z,47.47
2023-05-03T07:51:43.789Z,47.70
2023-05-03T07:52:44.823Z,47.62
2023-05-03T07:53:43.813Z,47.64
2023-05-03T07:54:43.769Z,47.87
2023-05-03T07:55:43.834Z,49.17
2023-05-03T07:56:43.770Z,48.94
2023-05-03T07:57:43.766Z,48.31
2023-05-03T07:58:46.618Z,47.58
2023-05-03T07:59:44.742Z,47.29
2023-05-03T08:00:43.755Z,48.13
2023-05-03T08:01:43.729Z,48.54
2023-05-03T08:02:43.817Z,47.52
2023-05-03T08:03:44.018Z,48.46
2023-05-03T08:04:43.966Z,49.09
2023-05-03T08:05:43.845Z,49.40
2023-05-03T08:06:43.725Z,49.27
2023-05-03T08:07:43.691Z,49.17
2023-05-03T08:08:43.690Z,49.48
2023-05-03T08:09:44.238Z,48.03
2023-05-03T08:10:43.646Z,48.66
2023-05-03T08:11:44.393Z,49.27
2023-05-03T08:12:44.706Z,48.33
2023-05-03T08:13:43.805Z,49.07
2023-05-03T08:14:43.643Z,49.04
2023-05-03T08:15:43.666Z,48.03
2023-05-03T08:16:43.598Z,48.46
2023-05-03T08:17:43.651Z,49.50
2023-05-03T08:18:44.323Z,49.83
2023-05-03T08:19:43.567Z,49.62
2023-05-03T08:20:43.574Z,50.56
2023-05-03T08:21:43.700Z,50.18
2023-05-03T08:22:43.568Z,50.87
2023-05-03T08:23:43.554Z,49.85
2023-05-03T08:24:43.531Z,49.60
2023-05-03T08:25:43.637Z,49.80
2023-05-03T08:26:43.548Z,50.39
2023-05-03T08:27:44.368Z,49.27
2023-05-03T08:28:43.537Z,49.48
2023-05-03T08:29:43.537Z,49.04
2023-05-03T08:30:43.514Z,48.84
2023-05-03T08:31:43.558Z,48.61
2023-05-03T08:32:43.550Z,49.10
2023-05-03T08:33:43.469Z,48.39
2023-05-03T08:34:43.485Z,48.39
2023-05-03T08:35:43.457Z,48.69
2023-05-03T08:36:43.460Z,48.51
2023-05-03T08:37:43.446Z,49.35
2023-05-03T08:38:43.448Z,49.76
2023-05-03T08:39:43.422Z,49.37
2023-05-03T08:40:43.421Z,49.55
2023-05-03T08:41:43.419Z,49.27
2023-05-03T08:42:43.425Z,48.86
2023-05-03T08:43:43.410Z,50.09
2023-05-03T08:44:43.387Z,50.29
2023-05-03T08:45:43.387Z,49.27
2023-05-03T08:46:43.502Z,49.58
2023-05-03T08:47:43.396Z,49.58
2023-05-03T08:48:43.402Z,49.68
2023-05-03T08:49:43.356Z,49.17
2023-05-03T08:50:44.254Z,49.48
2023-05-03T08:51:43.351Z,49.07
2023-05-03T08:52:43.396Z,49.35
2023-05-03T08:53:43.307Z,49.07
2023-05-03T08:54:45.401Z,49.48
2023-05-03T08:55:43.838Z,49.35
2023-05-03T08:56:43.307Z,49.55
2023-05-03T08:57:43.287Z,49.65
2023-05-03T08:58:43.276Z,49.58
2023-05-03T08:59:43.848Z,50.29
2023-05-03T09:00:43.248Z,50.62
2023-05-03T09:01:43.323Z,51.53
2023-05-03T09:02:43.420Z,50.11
2023-05-03T09:03:43.364Z,49.80
2023-05-03T09:04:43.330Z,50.21
2023-05-03T09:05:43.224Z,50.49
2023-05-03T09:06:43.228Z,50.39
2023-05-03T09:07:43.223Z,49.58
2023-05-03T09:08:43.174Z,49.35
2023-05-03T09:09:45.630Z,49.22
2023-05-03T09:10:43.218Z,49.43
2023-05-03T09:11:43.170Z,50.37
2023-05-03T09:12:43.838Z,49.76
2023-05-03T09:13:43.162Z,51.00
2023-05-03T09:14:43.158Z,50.52
2023-05-03T09:15:43.175Z,51.66
2023-05-03T09:16:45.044Z,51.05
2023-05-03T09:17:49.837Z,52.42
2023-05-03T09:18:43.790Z,52.45
2023-05-03T09:19:43.102Z,53.29
2023-05-03T09:20:43.083Z,53.83
2023-05-03T09:21:43.088Z,54.44
2023-05-03T09:22:43.101Z,53.92
2023-05-03T09:23:43.068Z,53.95
2023-05-03T09:24:43.068Z,54.49
2023-05-03T09:25:43.067Z,54.59
2023-05-03T09:26:43.057Z,54.18
2023-05-03T09:27:43.869Z,54.28
2023-05-03T09:28:43.047Z,54.57
2023-05-03T09:29:43.020Z,54.05
2023-05-03T09:30:43.014Z,54.67
2023-05-03T09:31:43.099Z,54.77
2023-05-03T09:32:43.120Z,54.57
2023-05-03T09:33:42.983Z,54.97
2023-05-03T09:34:43.010Z,54.67
2023-05-03T09:35:42.973Z,55.26
2023-05-03T09:36:44.473Z,54.36
2023-05-03T09:37:42.972Z,54.33
2023-05-03T09:38:42.949Z,52.62
2023-05-03T09:39:42.950Z,53.85
2023-05-03T09:40:42.957Z,54.23
2023-05-03T09:41:42.918Z,54.44
2023-05-03T09:42:42.940Z,53.90
2023-05-03T09:43:42.913Z,54.11
2023-05-03T09:44:42.928Z,52.78
2023-05-03T09:45:42.925Z,53.08
2023-05-03T09:46:42.896Z,52.47
2023-05-03T09:47:42.888Z,52.70
2023-05-03T09:48:42.978Z,52.91
2023-05-03T09:49:42.859Z,52.39
2023-05-03T09:50:42.858Z,53.92
2023-05-03T09:51:42.881Z,53.31
2023-05-03T09:52:42.852Z,52.60
2023-05-03T09:53:42.828Z,52.27
2023-05-03T09:54:42.825Z,53.80
2023-05-03T09:55:42.825Z,52.27
2023-05-03T09:56:42.812Z,52.04
2023-05-03T09:57:42.813Z,52.78
2023-05-03T09:58:42.807Z,51.96
2023-05-03T09:59:42.834Z,52.39
2023-05-03T10:00:42.776Z,52.91
2023-05-03T10:01:42.826Z,52.91
2023-05-03T10:02:42.825Z,53.92
2023-05-03T10:03:42.815Z,52.47
2023-05-03T10:04:42.766Z,52.25
2023-05-03T10:05:42.746Z,52.34
2023-05-03T10:06:42.787Z,51.84
2023-05-03T10:07:44.356Z,52.14
2023-05-03T10:09:30.326Z,52.67
2023-05-03T10:10:30.319Z,52.50
2023-05-03T10:11:30.343Z,53.90
2023-05-03T10:12:31.393Z,53.47
2023-05-03T10:13:32.451Z,53.08
2023-05-03T10:14:31.384Z,52.06
2023-05-03T10:15:31.417Z,53.27
2023-05-03T10:16:31.406Z,52.75
2023-05-03T10:17:43.567Z,52.14
2023-05-03T10:18:33.403Z,52.34
2023-05-03T10:19:31.338Z,52.42
2023-05-03T10:20:31.394Z,52.01
2023-05-03T10:21:31.326Z,52.25
2023-05-03T10:22:31.316Z,53.44
2023-05-03T10:23:31.322Z,52.22
2023-05-03T10:24:31.314Z,51.68
2023-05-03T10:25:31.319Z,51.48
2023-05-03T10:26:31.321Z,51.91
2023-05-03T10:27:31.291Z,51.79
2023-05-03T10:28:31.284Z,51.40
2023-05-03T10:29:31.267Z,50.87
2023-05-03T10:30:32.049Z,51.38
2023-05-03T10:31:31.278Z,51.86
2023-05-03T10:32:31.281Z,50.54
2023-05-03T10:33:31.238Z,50.11
2023-05-03T10:34:32.082Z,49.80
2023-05-03T10:35:31.270Z,49.29
2023-05-03T10:36:45.844Z,50.09
2023-05-03T10:37:33.241Z,50.19
2023-05-03T10:38:31.223Z,49.58
2023-05-03T10:39:31.248Z,50.59
2023-05-03T10:40:31.953Z,49.17
2023-05-03T10:41:31.206Z,49.29
2023-05-03T10:42:31.157Z,50.01
2023-05-03T10:43:32.059Z,50.42
2023-05-03T10:44:32.159Z,49.29
2023-05-03T10:45:31.188Z,49.60
2023-05-03T10:46:31.155Z,48.96
2023-05-03T10:47:31.128Z,48.79
2023-05-03T10:48:32.109Z,49.29
2023-05-03T10:49:31.121Z,48.35
2023-05-03T10:50:31.093Z,48.68
2023-05-03T10:51:31.107Z,48.07
2023-05-03T10:52:31.102Z,48.18
2023-05-03T10:53:31.092Z,48.96
2023-05-03T10:54:32.040Z,48.68
2023-05-03T10:55:31.060Z,48.07
2023-05-03T10:56:31.073Z,49.50
2023-05-03T10:57:31.062Z,49.19
2023-05-03T10:58:31.060Z,49.50
2023-05-03T10:59:31.044Z,49.29
2023-05-03T11:00:31.035Z,49.40
2023-05-03T11:01:31.042Z,48.89
2023-05-03T11:02:31.027Z,49.70
2023-05-03T11:03:31.024Z,48.99
2023-05-03T11:04:31.751Z,49.78
2023-05-03T11:05:31.966Z,49.17
2023-05-03T11:06:31.075Z,48.66
2023-05-03T11:07:31.005Z,47.52
2023-05-03T11:08:30.962Z,45.71
2023-05-03T11:09:30.950Z,45.91
2023-05-03T11:10:30.945Z,46.83
2023-05-03T11:11:30.941Z,47.44
2023-05-03T11:12:30.908Z,47.52
2023-05-03T11:13:30.947Z,47.62
2023-05-03T11:14:30.940Z,46.48
2023-05-03T11:15:32.477Z,45.36
2023-05-03T11:16:31.015Z,45.76
2023-05-03T11:17:30.888Z,45.75
2023-05-03T11:18:30.929Z,45.44
2023-05-03T11:19:30.855Z,45.75
2023-05-03T11:20:30.857Z,46.97
2023-05-03T11:21:31.556Z,45.83
2023-05-03T11:22:30.828Z,45.46
2023-05-03T11:23:31.465Z,45.76
2023-05-03T11:24:30.870Z,45.99
2023-05-03T11:25:30.817Z,46.48
2023-05-03T11:26:30.807Z,46.68
2023-05-03T11:27:30.800Z,46.78
2023-05-03T11:28:30.779Z,46.17
2023-05-03T11:29:30.770Z,46.98
2023-05-03T11:30:30.779Z,47.70
2023-05-03T11:31:30.762Z,46.58
2023-05-03T11:32:30.798Z,45.15
2023-05-03T11:33:30.747Z,46.48
2023-05-03T11:34:31.060Z,46.76
2023-05-03T11:35:30.796Z,46.37
2023-05-03T11:36:30.707Z,46.58
2023-05-03T11:37:30.705Z,46.58
2023-05-03T11:38:30.706Z,47.52
2023-05-03T11:39:30.700Z,47.82
2023-05-03T11:40:30.694Z,48.54
2023-05-03T11:41:33.548Z,48.41
2023-05-03T11:42:30.677Z,48.21
2023-05-03T11:43:31.547Z,48.21
2023-05-03T11:44:30.695Z,47.80
2023-05-03T11:45:30.686Z,47.60
2023-05-03T11:46:30.804Z,47.39
2023-05-03T11:47:30.739Z,47.39
2023-05-03T11:48:30.697Z,46.56
2023-05-03T11:49:30.616Z,46.45
2023-05-03T11:50:30.617Z,45.44
2023-05-03T11:51:30.605Z,44.83
2023-05-03T11:52:30.764Z,45.54
2023-05-03T11:53:30.602Z,46.25
2023-05-03T11:54:31.490Z,45.32
2023-05-03T11:55:30.594Z,45.20
2023-05-03T11:56:30.600Z,43.98
2023-05-03T11:57:30.573Z,45.25
2023-05-03T11:58:30.540Z,44.06
2023-05-03T11:59:30.529Z,45.37
2023-05-03T12:00:30.525Z,45.40
2023-05-03T12:01:30.543Z,44.51
2023-05-03T12:02:31.649Z,45.70
2023-05-03T12:03:32.526Z,46.82
2023-05-03T12:04:31.595Z,46.82
2023-05-03T12:05:30.953Z,47.05
2023-05-03T12:06:30.857Z,47.55
2023-05-03T12:07:30.798Z,47.13
2023-05-03T12:08:31.622Z,48.06
2023-05-03T12:09:31.769Z,47.25
2023-05-03T12:10:30.882Z,40.52
2023-05-03T21:21:30.130Z,72.65
2023-05-03T21:22:30.109Z,72.55
2023-05-03T21:23:30.107Z,72.89
2023-05-03T21:24:30.095Z,72.99
2023-05-03T21:25:30.072Z,72.89
2023-05-03T21:26:30.088Z,73.09
2023-05-03T21:27:30.087Z,73.54
2023-05-03T21:28:30.051Z,73.54
2023-05-03T21:29:30.051Z,73.54
2023-05-03T21:30:30.044Z,74.26
2023-05-03T21:31:31.197Z,73.74
2023-05-03T21:32:31.151Z,73.54
2023-05-03T21:33:31.124Z,73.54
2023-05-03T21:34:31.145Z,74.57
2023-05-03T21:35:31.099Z,74.36
2023-05-03T21:36:31.104Z,74.70
2023-05-03T21:37:33.398Z,75.32
2023-05-03T21:38:33.143Z,75.63
2023-05-03T21:39:31.103Z,75.84
2023-05-03T21:40:31.073Z,75.84
2023-05-03T21:41:31.052Z,76.18
2023-05-03T21:42:31.925Z,76.07
2023-05-03T21:43:31.034Z,75.97
2023-05-03T21:44:31.029Z,75.77
2023-05-03T21:45:31.053Z,75.87
2023-05-03T21:46:31.087Z,75.70
2023-05-03T21:47:31.037Z,75.70
2023-05-03T21:48:30.990Z,75.77
2023-05-03T21:49:30.989Z,75.87
2023-05-03T21:50:30.980Z,75.46
2023-05-03T21:51:30.966Z,76.83
2023-05-03T21:52:30.959Z,76.83
2023-05-03T21:53:31.062Z,76.93
2023-05-03T21:54:30.947Z,77.14
2023-05-03T21:55:30.933Z,77.25
2023-05-03T21:56:30.930Z,77.55
2023-05-03T21:57:33.004Z,77.35
2023-05-03T21:58:34.913Z,77.38
2023-05-03T21:59:31.416Z,76.97
2023-05-03T22:00:33.508Z,78.11
2023-05-03T22:01:30.902Z,78.21
2023-05-03T22:02:31.098Z,77.08
2023-05-03T22:03:31.013Z,77.94
2023-05-03T22:04:30.872Z,78.24
2023-05-03T22:05:30.852Z,78.34
2023-05-03T22:06:30.843Z,79.38
2023-05-03T22:07:30.859Z,78.86